createdAt,value
2023-03-05T00:05:19.850Z,99.9
2023-03-05T00:07:17.389Z,99.9
2023-03-05T00:09:14.955Z,99.9
2023-03-05T00:11:12.506Z,99.9
2023-03-05T00:13:17.956Z,99.9
2023-03-05T00:15:15.501Z,99.9
2023-03-05T00:17:13.059Z,99.9
2023-03-05T00:19:10.593Z,99.9
2023-03-05T00:21:08.147Z,99.9
2023-03-05T00:23:05.713Z,99.9
2023-03-05T00:25:03.252Z,99.9
2023-03-05T00:29:06.252Z,99.9
2023-03-05T00:31:03.814Z,99.9
2023-03-05T00:33:01.320Z,99.9
2023-03-05T00:34:58.915Z,99.9
2023-03-05T00:36:56.419Z,99.9
2023-03-05T00:38:53.972Z,99.9
2023-03-05T00:40:59.421Z,99.9
2023-03-05T00:42:56.979Z,99.9
2023-03-05T00:44:54.532Z,99.9
2023-03-05T00:46:52.106Z,99.9
2023-03-05T00:48:49.586Z,99.9
2023-03-05T00:50:47.164Z,99.9
2023-03-05T00:52:44.692Z,99.9
2023-03-05T00:58:45.213Z,99.9
2023-03-05T01:01:12.112Z,99.9
2023-03-05T01:03:09.635Z,99.9
2023-03-05T01:05:07.267Z,99.9
2023-03-05T01:07:12.608Z,99.9
2023-03-05T01:11:07.712Z,99.9
2023-03-05T01:13:05.253Z,99.9
2023-03-05T01:15:02.814Z,99.9
2023-03-05T01:17:00.350Z,99.9
2023-03-05T01:18:57.873Z,99.9
2023-03-05T01:21:03.330Z,99.9
2023-03-05T01:23:00.894Z,99.9
2023-03-05T01:26:55.991Z,99.9
2023-03-05T01:28:53.526Z,99.9
2023-03-05T01:30:51.090Z,99.9
2023-03-05T01:32:48.591Z,99.9
2023-03-05T01:34:54.026Z,99.9
2023-03-05T01:36:51.578Z,99.9
2023-03-05T01:38:49.126Z,99.9
2023-03-05T01:40:46.705Z,99.9
2023-03-05T01:42:44.221Z,99.9
2023-03-05T01:44:41.797Z,99.9
2023-03-05T01:46:39.348Z,99.9
2023-03-05T01:48:44.785Z,99.9
2023-03-05T01:50:42.319Z,99.9
2023-03-05T01:52:39.876Z,99.9
2023-03-05T01:53:42.576Z,99.9
2023-03-05T01:55:40.145Z,99.9
2023-03-05T01:59:35.268Z,99.9
2023-03-05T02:01:40.693Z,99.9
2023-03-05T02:03:38.286Z,99.9
2023-03-05T02:05:35.749Z,99.9
2023-03-05T02:07:33.266Z,99.9
2023-03-05T02:09:30.839Z,99.9
2023-03-05T02:13:25.929Z,99.9
2023-03-05T02:15:31.362Z,99.9
2023-03-05T02:21:24.003Z,99.9
2023-03-05T02:23:21.548Z,99.9
2023-03-05T02:33:17.184Z,99.9
2023-03-05T02:35:14.735Z,99.9
2023-03-05T02:37:12.305Z,99.9
2023-03-05T02:39:09.852Z,99.9
2023-03-05T02:41:07.393Z,99.9
2023-03-05T02:43:12.858Z,99.9
2023-03-05T02:45:10.389Z,99.9
2023-03-05T02:47:07.953Z,99.9
2023-03-05T02:48:10.685Z,99.9
2023-03-05T02:52:05.740Z,99.9
2023-03-05T02:54:03.275Z,99.9
2023-03-05T02:58:06.253Z,99.9
2023-03-05T03:02:01.345Z,99.9
2023-03-05T03:05:56.419Z,99.9
2023-03-05T03:07:53.967Z,99.9
2023-03-05T03:11:56.977Z,99.9
2023-03-05T03:13:54.494Z,99.9
2023-03-05T03:25:47.653Z,99.9
2023-03-05T03:27:45.188Z,99.9
2023-03-05T03:29:42.714Z,99.9
2023-03-05T03:31:40.250Z,99.9
2023-03-05T03:37:40.793Z,99.9
2023-03-05T03:39:38.326Z,99.9
2023-03-05T03:41:35.844Z,99.9
2023-03-05T03:42:38.587Z,99.9
2023-03-05T03:44:36.100Z,99.9
2023-03-05T03:48:31.193Z,99.9
2023-03-05T03:50:36.624Z,99.9
2023-03-05T03:54:31.684Z,99.9
2023-03-05T03:56:29.242Z,99.9
2023-03-05T03:58:26.769Z,99.9
2023-03-05T04:00:24.313Z,99.9
2023-03-05T04:02:21.925Z,99.9
2023-03-05T04:04:27.328Z,99.9
2023-03-05T04:06:24.817Z,99.9
2023-03-05T04:08:22.344Z,99.9
2023-03-05T04:10:19.891Z,99.9
2023-03-05T04:12:17.407Z,99.9
2023-03-05T04:14:14.943Z,99.9
2023-03-05T04:18:17.940Z,99.9
2023-03-05T04:20:15.495Z,99.9
2023-03-05T04:22:13.027Z,99.9
2023-03-05T04:24:10.569Z,99.9
2023-03-05T04:26:08.090Z,99.9
2023-03-05T04:28:05.643Z,99.9
2023-03-05T04:30:03.174Z,99.9
2023-03-05T04:32:08.648Z,99.9
2023-03-05T04:34:06.122Z,99.9
2023-03-05T04:38:30.560Z,99.9
2023-03-05T04:40:28.100Z,99.9
2023-03-05T04:42:25.611Z,99.9
2023-03-05T04:44:31.203Z,99.9
2023-03-05T04:46:28.606Z,99.9
2023-03-05T04:48:26.112Z,99.9
2023-03-05T04:54:18.737Z,99.9
2023-03-05T04:56:16.290Z,99.9
2023-03-05T05:00:19.271Z,99.9
2023-03-05T05:02:16.808Z,99.9
2023-03-05T05:06:11.886Z,99.9
2023-03-05T05:08:09.987Z,99.9
2023-03-05T05:10:08.896Z,99.9
2023-03-05T05:12:12.928Z,99.9
2023-03-05T05:14:10.483Z,99.9
2023-03-05T05:16:08.113Z,99.9
2023-03-05T05:18:05.538Z,99.9
2023-03-05T05:20:03.093Z,99.9
2023-03-05T05:31:01.330Z,99.9
2023-03-05T05:32:58.873Z,99.9
2023-03-05T05:34:56.403Z,99.9
2023-03-05T05:36:53.983Z,99.9
2023-03-05T05:38:59.466Z,99.9
2023-03-05T05:40:56.899Z,99.9
2023-03-05T05:46:51.061Z,99.9
2023-03-05T05:48:48.540Z,99.9
2023-03-05T05:50:46.080Z,99.9
2023-03-05T05:56:46.553Z,99.9
2023-03-05T05:58:44.095Z,99.9
2023-03-05T06:02:39.222Z,99.9
2023-03-05T06:04:36.653Z,99.9
2023-03-05T06:06:42.089Z,99.9
2023-03-05T06:08:39.610Z,99.9
2023-03-05T06:14:32.200Z,99.9
2023-03-05T06:16:29.798Z,99.9
2023-03-05T06:18:27.257Z,99.9
2023-03-05T06:20:32.695Z,99.9
2023-03-05T06:22:30.221Z,99.9
2023-03-05T06:24:27.733Z,99.9
2023-03-05T06:25:30.439Z,99.9
2023-03-05T06:27:27.983Z,99.9
2023-03-05T06:29:25.497Z,99.9
2023-03-05T06:33:28.448Z,99.9
2023-03-05T06:35:26.027Z,99.9
2023-03-05T06:39:21.017Z,99.9
2023-03-05T06:41:18.576Z,99.9
2023-03-05T06:43:16.051Z,99.9
2023-03-05T06:45:13.621Z,99.9
2023-03-05T06:47:19.037Z,99.9
2023-03-05T06:49:16.598Z,99.9
2023-03-05T06:53:11.654Z,99.9
2023-03-05T06:57:06.703Z,99.9
2023-03-05T06:59:04.236Z,99.9
2023-03-05T07:01:09.721Z,99.9
2023-03-05T07:03:07.203Z,99.9
2023-03-05T07:05:04.757Z,99.9
2023-03-05T07:08:59.809Z,99.9
2023-03-05T07:10:57.348Z,99.9
2023-03-05T07:12:54.922Z,99.9
2023-03-05T07:15:00.314Z,99.9
2023-03-05T07:16:57.847Z,99.9
2023-03-05T07:18:55.370Z,99.9
2023-03-05T07:21:55.610Z,99.9
2023-03-05T07:25:50.692Z,99.9
2023-03-05T07:27:56.614Z,99.9
2023-03-05T07:33:48.710Z,99.9
2023-03-05T07:35:46.301Z,99.9
2023-03-05T07:39:41.310Z,99.9
2023-03-05T07:41:46.757Z,99.9
2023-03-05T07:43:44.290Z,99.9
2023-03-05T07:45:41.829Z,99.9
2023-03-05T07:47:39.357Z,99.9
2023-03-05T07:49:36.894Z,99.9
2023-03-05T07:51:34.440Z,99.9
2023-03-05T07:53:31.970Z,99.9
2023-03-05T07:55:37.423Z,99.9
2023-03-05T07:59:32.506Z,99.9
2023-03-05T08:01:30.048Z,99.9
2023-03-05T08:03:28.181Z,99.9
2023-03-05T08:09:28.082Z,99.9
2023-03-05T08:11:25.599Z,99.9
2023-03-05T08:13:23.151Z,99.9
2023-03-05T08:15:45.875Z,99.9
2023-03-05T08:17:43.394Z,99.9
2023-03-05T08:19:40.939Z,99.9
2023-03-05T08:21:46.379Z,99.9
2023-03-05T08:23:43.941Z,99.9
2023-03-05T08:25:41.515Z,99.9
2023-03-05T08:27:39.019Z,99.9
2023-03-05T08:29:36.574Z,99.9
2023-03-05T08:33:33.366Z,99.9
2023-03-05T08:35:37.168Z,99.9
2023-03-05T08:37:34.700Z,99.9
2023-03-05T08:39:32.248Z,99.9
2023-03-05T08:41:29.806Z,99.9
2023-03-05T08:43:27.349Z,99.9
2023-03-05T08:45:24.934Z,99.9
2023-03-05T08:49:27.925Z,99.9
2023-03-05T08:51:25.523Z,99.9
2023-03-05T08:53:23.073Z,99.9
2023-03-05T08:55:20.612Z,99.9
2023-03-05T08:57:18.174Z,99.9
2023-03-05T08:59:15.748Z,99.9
2023-03-05T09:03:17.437Z,99.9
2023-03-05T09:07:12.435Z,99.9
2023-03-05T09:08:15.169Z,99.9
2023-03-05T09:10:12.747Z,99.9
2023-03-05T09:12:12.188Z,99.9
2023-03-05T09:14:07.890Z,99.9
2023-03-05T09:16:13.380Z,99.9
2023-03-05T09:18:10.912Z,99.9
2023-03-05T09:20:08.929Z,99.9
2023-03-05T09:22:06.026Z,99.9
2023-03-05T09:24:03.566Z,99.9
2023-03-05T09:26:01.143Z,99.9
2023-03-05T09:27:58.704Z,99.9
2023-03-05T09:30:04.162Z,99.9
2023-03-05T09:32:01.803Z,99.9
2023-03-05T09:33:59.323Z,99.9
2023-03-05T09:35:56.964Z,99.9
2023-03-05T09:41:49.591Z,99.9
2023-03-05T09:43:55.064Z,99.9
2023-03-05T09:49:47.800Z,99.9
2023-03-05T09:51:45.371Z,99.7
2023-03-05T09:53:42.919Z,99.6
2023-03-05T09:55:40.598Z,99.5
2023-03-05T09:57:45.966Z,99
2023-03-05T10:06:39.002Z,96.6
2023-03-05T10:08:36.581Z,96.2
2023-03-05T10:10:42.093Z,95.8
2023-03-05T10:12:39.673Z,95.8
2023-03-05T10:14:37.258Z,96
2023-03-05T10:20:29.989Z,96.5
2023-03-05T10:26:30.607Z,96.7
2023-03-05T10:28:28.198Z,96.5
2023-03-05T10:32:28.667Z,96.1
2023-03-05T10:34:20.943Z,95.9
2023-03-05T10:38:34.602Z,95.8
2023-03-05T10:40:23.927Z,95.7
2023-03-05T10:44:19.715Z,95.1
2023-03-05T10:46:21.399Z,94.7
2023-03-05T10:48:19.229Z,94.5
2023-03-05T10:50:09.721Z,94.3
2023-03-05T10:52:18.364Z,94.5
2023-03-05T10:59:10.371Z,98
2023-03-05T11:01:08.098Z,98.7
2023-03-05T11:03:05.558Z,99.1
2023-03-05T11:07:08.578Z,99.9
2023-03-05T11:09:06.159Z,99.9
2023-03-05T11:13:01.306Z,99.9
2023-03-05T11:14:58.881Z,99.9
2023-03-05T11:16:56.448Z,99.9
2023-03-05T11:19:01.920Z,99.9
2023-03-05T11:20:59.466Z,99.9
2023-03-05T11:22:57.056Z,99.9
2023-03-05T11:28:51.247Z,99.9
2023-03-05T11:32:54.243Z,99.9
2023-03-05T11:42:42.053Z,99.9
2023-03-05T11:46:45.100Z,99.9
2023-03-05T11:50:40.244Z,99.9
2023-03-05T11:56:52.448Z,99.9
2023-03-05T11:58:57.802Z,99.8
2023-03-05T12:00:55.391Z,99.7
2023-03-05T12:02:53.121Z,99.4
2023-03-05T12:04:50.563Z,98.7
2023-03-05T12:06:48.133Z,98.2
2023-03-05T12:08:45.695Z,97.6
2023-03-05T12:10:43.268Z,97.1
2023-03-05T12:16:43.922Z,96.1
2023-03-05T12:18:41.483Z,96
2023-03-05T12:22:36.616Z,94.8
2023-03-05T12:24:34.198Z,94.3
2023-03-05T12:26:39.742Z,94
2023-03-05T12:28:37.376Z,94.2
2023-03-05T12:30:34.996Z,94.2
2023-03-05T12:32:32.599Z,94.4
2023-03-05T12:34:30.158Z,94.8
2023-03-05T12:36:27.729Z,94.9
2023-03-05T12:38:27.058Z,95.2
2023-03-05T12:40:30.909Z,96.6
2023-03-05T12:44:26.027Z,96.9
2023-03-05T12:45:28.808Z,97
2023-03-05T12:47:26.380Z,96.8
2023-03-05T12:49:23.977Z,96.6
2023-03-05T12:51:21.556Z,96.2
2023-03-05T12:53:27.028Z,95.6
2023-03-05T12:55:24.634Z,95.4
2023-03-05T12:57:22.219Z,95.1
2023-03-05T13:01:17.395Z,94.4
2023-03-05T13:03:14.988Z,94.1
2023-03-05T13:05:12.557Z,93.8
2023-03-05T13:07:18.114Z,93.7
2023-03-05T13:09:15.872Z,93.7
2023-03-05T13:11:13.204Z,93.9
2023-03-05T13:13:10.974Z,93.7
2023-03-05T13:15:08.377Z,93.6
2023-03-05T13:17:05.948Z,93.3
2023-03-05T13:19:03.553Z,92.7
2023-03-05T13:21:09.051Z,92
2023-03-05T13:23:06.632Z,91.9
2023-03-05T13:25:04.200Z,91.5
2023-03-05T13:27:01.786Z,85.3
2023-03-05T13:32:54.562Z,80.1
2023-03-05T13:36:57.695Z,85
2023-03-05T13:38:55.293Z,85.4
2023-03-05T13:41:55.655Z,88.4
2023-03-05T13:51:51.571Z,89.9
2023-03-05T13:55:46.808Z,90.3
2023-03-05T13:57:44.362Z,90.5
2023-03-05T13:59:41.982Z,90.7
2023-03-05T14:01:47.468Z,90.6
2023-03-05T14:05:42.648Z,87.2
2023-03-05T14:09:37.940Z,86.7
2023-03-05T14:11:35.432Z,86
2023-03-05T14:13:33.042Z,85.5
2023-03-05T14:15:38.504Z,84.7
2023-03-05T14:17:36.085Z,84.3
2023-03-05T14:19:33.678Z,83.7
2023-03-05T14:21:31.289Z,82.9
2023-03-05T14:23:28.884Z,81.4
2023-03-05T14:25:26.457Z,81.2
2023-03-05T14:33:24.753Z,78
2023-03-05T14:34:27.524Z,77.3
2023-03-05T14:36:25.126Z,76.3
2023-03-05T14:38:22.691Z,76
2023-03-05T14:40:20.637Z,76
2023-03-05T14:42:25.769Z,76.7
2023-03-05T14:44:23.360Z,77.4
2023-03-05T14:46:21.001Z,77.6
2023-03-05T14:48:18.532Z,77.9
2023-03-05T14:50:16.136Z,78.1
2023-03-05T14:52:13.713Z,78.4
2023-03-05T14:54:11.274Z,78.1
2023-03-05T14:56:16.778Z,76.8
2023-03-05T14:58:14.361Z,75.5
2023-03-05T15:00:11.952Z,75.1
2023-03-05T15:02:09.586Z,74.5
2023-03-05T15:08:02.393Z,73.3
2023-03-05T15:12:05.378Z,73
2023-03-05T15:14:02.969Z,72.8
2023-03-05T15:16:00.606Z,69
2023-03-05T15:17:58.156Z,66.8
2023-03-05T15:19:55.749Z,66.6
2023-03-05T15:21:53.312Z,66.2
2023-03-05T15:23:58.800Z,65.5
2023-03-05T15:25:56.363Z,65
2023-03-05T15:27:53.981Z,64.7
2023-03-05T15:32:18.475Z,63.6
2023-03-05T15:34:16.040Z,63.8
2023-03-05T15:36:21.507Z,63.5
2023-03-05T15:42:14.277Z,62.5
2023-03-05T15:44:11.856Z,61.9
2023-03-05T15:46:09.518Z,61.5
2023-03-05T15:48:07.054Z,61
2023-03-05T15:50:12.545Z,60.1
2023-03-05T15:52:10.132Z,60.2
2023-03-05T15:54:07.719Z,59.9
2023-03-05T15:56:05.302Z,59.8
2023-03-05T16:04:03.579Z,59.7
2023-03-05T16:06:01.154Z,59.8
2023-03-05T16:07:58.763Z,59.6
2023-03-05T16:09:56.318Z,59.6
2023-03-05T16:11:53.894Z,59.5
2023-03-05T16:13:51.496Z,59.5
2023-03-05T16:15:49.104Z,59.7
2023-03-05T16:17:54.619Z,60.1
2023-03-05T16:19:52.192Z,60.5
2023-03-05T16:21:49.784Z,61
2023-03-05T16:22:52.519Z,61.4
2023-03-05T16:24:50.119Z,61.4
2023-03-05T16:26:47.709Z,61.6
2023-03-05T16:34:45.948Z,63.2
2023-03-05T16:36:43.587Z,63.7
2023-03-05T16:38:41.150Z,63.9
2023-03-05T16:42:36.282Z,64.6
2023-03-05T16:44:41.762Z,65.4
2023-03-05T16:46:39.429Z,65.8
2023-03-05T16:48:36.960Z,66.3
2023-03-05T16:50:34.538Z,66.7
2023-03-05T16:52:32.114Z,67.5
2023-03-05T16:56:27.298Z,68.3
2023-03-05T16:58:32.768Z,68.9
2023-03-05T17:00:30.496Z,69.3
2023-03-05T17:04:25.708Z,69.7
2023-03-05T17:06:23.103Z,69.9
2023-03-05T17:08:22.208Z,70.1
2023-03-05T17:10:19.751Z,70.2
2023-03-05T17:12:25.234Z,70.5
2023-03-05T17:14:22.805Z,70.6
2023-03-05T17:16:20.448Z,70.8
2023-03-05T17:17:23.120Z,71
2023-03-05T17:21:18.272Z,71.5
2023-03-05T17:29:16.513Z,72.7
2023-03-05T17:31:14.086Z,72.8
2023-03-05T17:33:11.716Z,72.7
2023-03-05T17:37:06.763Z,73
2023-03-05T17:39:12.266Z,73.2
2023-03-05T17:41:09.837Z,73.5
2023-03-05T17:45:04.968Z,73.6
2023-03-05T17:47:02.535Z,73.5
2023-03-05T17:49:00.159Z,73.6
2023-03-05T17:53:03.180Z,73.2
2023-03-05T18:08:51.695Z,73.6
2023-03-05T18:10:49.286Z,73.7
2023-03-05T18:11:52.006Z,73.8
2023-03-05T18:13:49.584Z,74
2023-03-05T18:15:47.171Z,74.1
2023-03-05T18:17:44.711Z,74.1
2023-03-05T18:21:47.779Z,74.4
2023-03-05T18:23:45.350Z,74.5
2023-03-05T18:25:42.937Z,74.7
2023-03-05T18:29:38.079Z,76.3
2023-03-05T18:31:35.677Z,76.6
2023-03-05T18:33:41.145Z,77.7
2023-03-05T18:35:38.749Z,78.3
2023-03-05T18:37:36.293Z,78.2
2023-03-05T18:39:33.869Z,78.6
2023-03-05T18:41:31.558Z,79
2023-03-05T18:45:26.608Z,79.5
2023-03-05T18:47:32.084Z,81.3
2023-03-05T18:49:29.694Z,81.9
2023-03-05T18:51:27.247Z,85.7
2023-03-05T18:53:24.810Z,89.8
2023-03-05T18:55:22.403Z,92.1
2023-03-05T18:57:19.942Z,96.1
2023-03-05T18:59:17.495Z,96.7
2023-03-05T19:01:23.045Z,98.5
2023-03-05T19:03:22.568Z,98.9
2023-03-05T19:05:18.209Z,99.4
2023-03-05T19:07:45.117Z,99.9
2023-03-05T19:09:42.617Z,99.9
2023-03-05T19:11:40.198Z,99.9
2023-03-05T19:13:45.665Z,99.9
2023-03-05T19:15:43.269Z,99.9
2023-03-05T19:19:38.356Z,99.9
2023-03-05T19:21:35.930Z,99.9
2023-03-05T19:23:33.467Z,99.9
2023-03-05T19:25:31.050Z,99.9
2023-03-05T19:31:31.592Z,99.9
2023-03-05T19:37:24.250Z,99.9
2023-03-05T19:39:21.841Z,99.9
2023-03-05T19:41:27.259Z,99.9
2023-03-05T19:43:24.820Z,99.9
2023-03-05T19:45:22.476Z,99.9
2023-03-05T19:47:19.924Z,99.9
2023-03-05T19:49:17.470Z,99.9
2023-03-05T19:51:15.061Z,99.9
2023-03-05T19:53:12.597Z,99.9
2023-03-05T19:55:18.048Z,99.9
2023-03-05T19:57:15.622Z,99.9
2023-03-05T19:59:13.165Z,99.9
2023-03-05T20:02:13.441Z,99.9
2023-03-05T20:04:10.981Z,99.9
2023-03-05T20:06:08.541Z,99.9
2023-03-05T20:08:14.014Z,99.9
2023-03-05T20:10:11.637Z,99.9
2023-03-05T20:12:09.124Z,99.9
2023-03-05T20:14:06.667Z,99.9
2023-03-05T20:16:04.266Z,99.9
2023-03-05T20:18:01.787Z,99.9
2023-03-05T20:19:59.347Z,99.9
2023-03-05T20:22:04.804Z,99.9
2023-03-05T20:24:02.386Z,99.9
2023-03-05T20:25:59.940Z,99.9
2023-03-05T20:27:57.513Z,99.9
2023-03-05T20:29:55.044Z,99.9
2023-03-05T20:31:52.608Z,99.9
2023-03-05T20:35:55.649Z,99.9
2023-03-05T20:37:53.211Z,99.9
2023-03-05T20:43:45.813Z,99.9
2023-03-05T20:45:43.371Z,99.9
2023-03-05T20:49:46.361Z,99.9
2023-03-05T20:53:41.485Z,99.9
2023-03-05T20:54:44.284Z,99.9
2023-03-05T20:56:41.771Z,99.9
2023-03-05T21:02:42.306Z,99.9
2023-03-05T21:04:39.867Z,99.9
2023-03-05T21:06:37.401Z,99.9
2023-03-05T21:08:35.001Z,99.9
2023-03-05T21:10:32.521Z,99.9
2023-03-05T21:12:30.103Z,99.9
2023-03-05T21:14:27.620Z,99.9
2023-03-05T21:16:33.067Z,99.9
2023-03-05T21:18:30.594Z,99.9
2023-03-05T21:20:28.159Z,99.9
2023-03-05T21:22:25.689Z,99.9
2023-03-05T21:24:23.260Z,99.9
2023-03-05T21:26:20.869Z,99.9
2023-03-05T21:28:18.327Z,99.9
2023-03-05T21:30:23.792Z,99.9
2023-03-05T21:32:21.425Z,99.9
2023-03-05T21:34:18.902Z,99.9
2023-03-05T21:36:16.434Z,99.9
2023-03-05T21:38:14.124Z,99.9
2023-03-05T21:40:11.534Z,99.9
2023-03-05T21:42:09.082Z,99.9
2023-03-05T21:44:14.550Z,99.9
2023-03-05T21:46:12.176Z,99.9
2023-03-05T21:48:09.642Z,99.9
2023-03-05T21:49:12.358Z,99.9
2023-03-05T21:55:05.075Z,99.9
2023-03-05T22:03:03.128Z,99.9
2023-03-05T22:08:55.920Z,99.9
2023-03-05T22:12:58.750Z,99.9
2023-03-05T22:14:56.300Z,99.9
2023-03-05T22:16:53.898Z,99.9
2023-03-05T22:18:51.423Z,99.9
2023-03-05T22:22:46.456Z,99.9
2023-03-05T22:24:51.877Z,99.9
2023-03-05T22:28:46.946Z,99.9
2023-03-05T22:30:44.539Z,99.9
2023-03-05T22:32:42.057Z,99.9
2023-03-05T22:34:39.597Z,99.9
2023-03-05T22:36:37.122Z,99.9
2023-03-05T22:38:42.570Z,99.9
2023-03-05T22:42:37.663Z,99.9
2023-03-05T22:44:54.464Z,99.9
2023-03-05T22:46:52.010Z,99.9
2023-03-05T22:54:51.572Z,99.9
2023-03-05T22:58:46.666Z,99.9
2023-03-05T23:00:44.212Z,99.9
2023-03-05T23:02:41.764Z,99.9
2023-03-05T23:04:47.202Z,99.9
2023-03-05T23:06:44.736Z,99.9
2023-03-05T23:08:42.285Z,99.9
2023-03-05T23:12:37.364Z,99.9
2023-03-05T23:14:34.895Z,99.9
2023-03-05T23:16:32.433Z,99.9
2023-03-05T23:20:35.447Z,99.9
2023-03-05T23:22:32.991Z,99.9
2023-03-05T23:24:30.524Z,99.9
2023-03-05T23:26:28.057Z,99.9
2023-03-05T23:28:25.594Z,99.9
2023-03-05T23:30:23.109Z,99.9
2023-03-05T23:32:28.629Z,99.9
2023-03-05T23:34:26.048Z,99.9
2023-03-05T23:36:23.601Z,99.9
2023-03-05T23:37:26.281Z,99.9
2023-03-05T23:39:23.800Z,99.9
2023-03-05T23:41:21.361Z,99.9
2023-03-05T23:43:18.879Z,99.9
2023-03-05T23:45:24.266Z,99.9
2023-03-05T23:47:21.808Z,99.9
2023-03-05T23:49:19.377Z,99.9
2023-03-05T23:55:11.895Z,99.9
2023-03-05T23:57:09.402Z,99.9
